createdAt,value
2019-05-19T00:00:17.253Z,15.7
2019-05-19T00:05:16.768Z,15.6
2019-05-19T00:10:16.668Z,15.4
2019-05-19T00:15:16.405Z,15.5
2019-05-19T00:20:16.252Z,15.5
2019-05-19T00:25:15.894Z,15.5
2019-05-19T00:30:15.494Z,15.3
2019-05-19T00:35:14.773Z,14.8
2019-05-19T00:40:13.977Z,14.8
2019-05-19T00:45:13.619Z,14.4
2019-05-19T00:50:13.213Z,14.4
2019-05-19T00:55:12.720Z,14.3
2019-05-19T01:00:12.468Z,14.2
2019-05-19T01:05:11.688Z,13.8
2019-05-19T01:10:10.961Z,13.5
2019-05-19T01:15:10.311Z,13.1
2019-05-19T01:20:09.720Z,12.9
2019-05-19T01:25:09.229Z,12.4
2019-05-19T01:30:08.814Z,12.1
2019-05-19T01:35:08.360Z,11.8
2019-05-19T01:40:08.134Z,12
2019-05-19T01:45:07.762Z,11.7
2019-05-19T01:50:18.562Z,11.7
2019-05-19T01:55:16.514Z,11.5
2019-05-19T02:00:15.845Z,11.3
2019-05-19T02:05:15.415Z,11
2019-05-19T02:10:15.166Z,11
2019-05-19T02:15:14.896Z,11
2019-05-19T02:20:14.434Z,11
2019-05-19T02:25:14.156Z,11.2
2019-05-19T02:30:13.623Z,11.2
2019-05-19T02:35:13.249Z,11
2019-05-19T02:40:12.640Z,11.2
2019-05-19T02:45:12.246Z,11
2019-05-19T02:50:11.913Z,11.1
2019-05-19T02:55:11.391Z,10.8
2019-05-19T03:00:10.967Z,11
2019-05-19T03:05:10.720Z,10.8
2019-05-19T03:10:10.297Z,11.1
2019-05-19T03:15:10.239Z,11.2
2019-05-19T03:20:10.136Z,11.6
2019-05-19T03:25:10.498Z,13
2019-05-19T03:30:11.948Z,14.8
2019-05-19T03:35:12.341Z,14.9
2019-05-19T03:40:12.094Z,14.5
2019-05-19T03:45:12.143Z,14.7
2019-05-19T03:50:11.589Z,14.4
2019-05-19T03:55:11.562Z,15.7
2019-05-19T04:00:11.021Z,14.4
2019-05-19T04:05:10.449Z,13.8
2019-05-19T04:10:11.362Z,15.5
2019-05-19T04:15:10.596Z,14.8
2019-05-19T04:20:11.534Z,16.9
2019-05-19T04:25:12.788Z,18.4
2019-05-19T04:30:13.437Z,18.7
2019-05-19T04:35:14.061Z,19.9
2019-05-19T04:40:13.976Z,20.1
2019-05-19T04:45:14.299Z,20.6
2019-05-19T04:50:13.489Z,19.2
2019-05-19T04:55:12.679Z,19.5
2019-05-19T05:00:13.045Z,20.8
2019-05-19T05:05:12.710Z,20.2
2019-05-19T05:10:12.292Z,19.9
2019-05-19T05:15:11.826Z,19.8
2019-05-19T05:20:11.703Z,20.5
2019-05-19T05:25:11.580Z,20.5
2019-05-19T05:30:10.922Z,19.2
2019-05-19T05:35:11.555Z,20.4
2019-05-19T05:40:11.302Z,18.5
2019-05-19T05:45:10.844Z,18.1
2019-05-19T05:50:10.492Z,18.5
2019-05-19T05:55:12.333Z,19.8
2019-05-19T06:00:11.291Z,18.6
2019-05-19T06:05:10.458Z,18.3
2019-05-19T06:10:11.423Z,19.1
2019-05-19T06:15:11.068Z,18.7
2019-05-19T06:20:12.171Z,19.9
2019-05-19T06:25:12.236Z,19.9
2019-05-19T06:30:12.260Z,20.3
2019-05-19T06:35:12.925Z,21.2
2019-05-19T06:40:12.955Z,20.9
2019-05-19T06:45:12.913Z,21
2019-05-19T06:50:12.980Z,21.4
2019-05-19T06:55:13.366Z,22.1
2019-05-19T07:00:13.316Z,22.6
2019-05-19T07:05:13.934Z,23.3
2019-05-19T07:10:14.118Z,23.2
2019-05-19T07:15:13.608Z,22.6
2019-05-19T07:20:13.339Z,23
2019-05-19T07:25:13.428Z,23.2
2019-05-19T07:30:13.051Z,23
2019-05-19T07:35:12.941Z,23.3
2019-05-19T07:40:12.190Z,22.3
2019-05-19T07:45:12.180Z,22.8
2019-05-19T07:50:11.742Z,22.3
2019-05-19T07:55:11.303Z,22.2
2019-05-19T08:00:11.059Z,22.2
2019-05-19T08:05:10.319Z,21.4
2019-05-19T08:10:09.817Z,21.8
2019-05-19T08:15:09.607Z,21.3
2019-05-19T08:20:08.983Z,21.6
2019-05-19T08:25:08.810Z,21.2
2019-05-19T08:30:08.858Z,21.5
2019-05-19T08:35:09.299Z,22.1
2019-05-19T08:40:09.721Z,22.9
2019-05-19T08:45:09.835Z,23
2019-05-19T08:50:08.995Z,22.4
2019-05-19T08:55:08.063Z,21.7
2019-05-19T09:00:08.006Z,22.2
2019-05-19T09:05:08.068Z,22.3
2019-05-19T09:10:08.068Z,22.2
2019-05-19T09:15:08.014Z,23.1
2019-05-19T09:20:08.558Z,23.5
2019-05-19T09:25:08.304Z,24.1
2019-05-19T09:30:08.628Z,24.5
2019-05-19T09:35:08.197Z,24.2
2019-05-19T09:40:07.796Z,24.4
2019-05-19T09:45:08.547Z,25.8
2019-05-19T09:50:08.577Z,26.3
2019-05-19T09:55:08.778Z,26.5
2019-05-19T10:00:07.815Z,25.9
2019-05-19T10:05:08.076Z,25.3
2019-05-19T10:10:08.570Z,25.4
2019-05-19T10:15:08.712Z,25.9
2019-05-19T10:20:09.163Z,26
2019-05-19T10:25:20.796Z,25.6
2019-05-19T10:30:19.367Z,24.9
2019-05-19T10:35:19.581Z,24.9
2019-05-19T10:40:22.128Z,25.6
2019-05-19T10:45:23.825Z,26.9
2019-05-19T10:50:22.741Z,26.2
2019-05-19T10:55:35.329Z,25.8
2019-05-19T11:00:34.920Z,26.1
2019-05-19T11:05:35.126Z,26.5
2019-05-19T11:10:34.846Z,26.2
2019-05-19T11:20:20.194Z,25
2019-05-19T11:25:32.935Z,25.6
2019-05-19T11:30:32.266Z,25.2
2019-05-19T11:35:31.135Z,24.5
2019-05-19T11:40:30.564Z,24.7
2019-05-19T11:45:30.056Z,24.5
2019-05-19T11:50:29.612Z,24.2
2019-05-19T11:55:29.428Z,24
2019-05-19T12:00:29.241Z,23.5
2019-05-19T12:05:28.998Z,23.6
2019-05-19T12:10:29.281Z,23.7
2019-05-19T12:15:29.201Z,23.4
2019-05-19T12:20:28.628Z,23.5
2019-05-19T12:25:28.256Z,22.9
2019-05-19T12:30:27.964Z,22.9
2019-05-19T12:35:27.748Z,22.8
2019-05-19T12:40:27.826Z,22.8
2019-05-19T12:45:27.846Z,23.3
2019-05-19T12:50:28.046Z,23.3
2019-05-19T12:55:27.948Z,23.1
2019-05-19T13:00:28.996Z,22.8
2019-05-19T13:05:28.401Z,23
2019-05-19T13:10:28.321Z,22.9
2019-05-19T13:15:28.334Z,23.1
2019-05-19T13:20:27.931Z,23.2
2019-05-19T13:25:27.730Z,23.3
2019-05-19T13:30:27.789Z,24.1
2019-05-19T13:35:27.864Z,24.8
2019-05-19T13:40:27.756Z,24.4
2019-05-19T13:45:27.878Z,24.5
2019-05-19T13:50:27.400Z,24.6
2019-05-19T13:55:26.436Z,23.7
2019-05-19T14:00:25.077Z,22.9
2019-05-19T14:05:24.847Z,23
2019-05-19T14:10:24.269Z,22.8
2019-05-19T14:15:23.918Z,22.9
2019-05-19T14:20:23.545Z,22.5
2019-05-19T14:25:23.076Z,22.5
2019-05-19T14:30:22.832Z,22.2
2019-05-19T14:35:22.706Z,22.1
2019-05-19T14:40:22.431Z,22.5
2019-05-19T14:45:22.176Z,22.2
2019-05-19T14:50:21.915Z,22.1
2019-05-19T14:55:21.024Z,21.7
2019-05-19T15:00:20.324Z,21.7
2019-05-19T15:05:20.082Z,21.6
2019-05-19T15:10:19.789Z,22.1
2019-05-19T15:15:19.735Z,22.2
2019-05-19T15:20:19.421Z,22.5
2019-05-19T15:25:19.100Z,22.2
2019-05-19T15:30:18.338Z,22.2
2019-05-19T15:35:17.919Z,22.1
2019-05-19T15:40:17.429Z,21.8
2019-05-19T15:45:16.888Z,21.7
2019-05-19T15:50:16.482Z,21.7
2019-05-19T15:55:15.968Z,21.4
2019-05-19T16:00:15.166Z,20.9
2019-05-19T16:05:15.308Z,21
2019-05-19T16:10:14.933Z,20.9
2019-05-19T16:15:14.824Z,20.7
2019-05-19T16:20:14.244Z,20.5
2019-05-19T16:25:13.756Z,20.4
2019-05-19T16:30:13.410Z,20.2
2019-05-19T16:35:13.324Z,20.4
2019-05-19T16:40:13.312Z,20.6
2019-05-19T16:45:13.096Z,20.5
2019-05-19T16:50:12.264Z,20.3
2019-05-19T16:55:11.818Z,20.1
2019-05-19T17:00:11.261Z,19.7
2019-05-19T17:05:10.840Z,19.8
2019-05-19T17:10:10.428Z,19.9
2019-05-19T17:15:10.048Z,19.9
2019-05-19T17:20:09.496Z,19.5
2019-05-19T17:25:09.338Z,19.5
2019-05-19T17:30:08.955Z,19.5
2019-05-19T17:35:08.443Z,19.4
2019-05-19T17:40:08.119Z,19.3
2019-05-19T17:45:07.628Z,19
2019-05-19T17:50:07.237Z,19.1
2019-05-19T17:55:06.992Z,19.1
2019-05-19T18:00:09.622Z,18.7
2019-05-19T18:05:09.306Z,18.5
2019-05-19T18:10:08.873Z,18.3
2019-05-19T18:15:08.745Z,18.6
2019-05-19T18:20:21.498Z,18.3
2019-05-19T18:25:21.339Z,18.1
2019-05-19T18:30:20.952Z,18
2019-05-19T18:35:20.356Z,18
2019-05-19T18:40:20.189Z,18
2019-05-19T18:45:19.871Z,18
2019-05-19T18:50:19.233Z,17.9
2019-05-19T18:55:19.024Z,17.7
2019-05-19T19:00:18.594Z,17.5
2019-05-19T19:05:17.958Z,17.5
2019-05-19T19:10:17.697Z,17.6
2019-05-19T19:15:17.594Z,17.3
2019-05-19T19:20:17.286Z,17.3
2019-05-19T19:25:16.859Z,17
2019-05-19T19:30:17.031Z,16.8
2019-05-19T19:35:16.567Z,16.7
2019-05-19T19:40:16.388Z,16.7
2019-05-19T19:45:16.342Z,17.3
2019-05-19T19:50:16.554Z,17
2019-05-19T19:55:16.266Z,16.5
2019-05-19T20:00:18.569Z,16.9
2019-05-19T20:05:18.226Z,16.7
2019-05-19T20:10:17.887Z,16.5
2019-05-19T20:15:17.424Z,16.5
2019-05-19T20:20:17.169Z,16.2
2019-05-19T20:25:16.744Z,16.5
2019-05-19T20:30:16.377Z,16.1
2019-05-19T20:35:16.249Z,16
2019-05-19T20:40:15.735Z,16
2019-05-19T20:45:16.559Z,16.5
2019-05-19T20:50:15.924Z,16.6
2019-05-19T20:55:15.663Z,16.3
2019-05-19T21:00:15.157Z,16.1
2019-05-19T21:05:14.909Z,16.1
2019-05-19T21:10:14.664Z,15.6
2019-05-19T21:15:13.981Z,15.9
2019-05-19T21:20:13.949Z,15.9
2019-05-19T21:25:13.854Z,15.2
2019-05-19T21:30:12.918Z,15
2019-05-19T21:35:12.467Z,14.7
2019-05-19T21:40:12.236Z,14.9
2019-05-19T21:45:11.702Z,14.5
2019-05-19T21:50:10.987Z,14.4
2019-05-19T21:55:10.597Z,14.1
2019-05-19T22:00:10.118Z,13.9
2019-05-19T22:05:09.746Z,13.7
2019-05-19T22:10:09.388Z,13.8
2019-05-19T22:15:08.918Z,13.9
2019-05-19T22:20:08.436Z,13.8
2019-05-19T22:25:08.246Z,14.1
2019-05-19T22:30:07.988Z,13.9
2019-05-19T22:35:07.370Z,13.5
2019-05-19T22:40:06.961Z,13.8
2019-05-19T22:45:06.806Z,13.7
2019-05-19T22:50:06.401Z,13.6
2019-05-19T22:55:06.227Z,13.7
2019-05-19T23:00:05.909Z,13.4
2019-05-19T23:05:05.620Z,13.8
2019-05-19T23:10:05.407Z,13.5
2019-05-19T23:15:05.506Z,14
2019-05-19T23:20:02.871Z,13.9
2019-05-19T23:25:02.675Z,13.7
2019-05-19T23:30:02.253Z,13.9
2019-05-19T23:35:01.991Z,13.9
2019-05-19T23:40:01.729Z,13.7
2019-05-19T23:45:01.468Z,13.5
2019-05-19T23:50:00.892Z,13.5
2019-05-19T23:55:00.606Z,13.8
